sensor_id;sensor_type;location;lat;lon;timestamp;pressure;altitude;pressure_sealevel;temperature;humidity
57990;BME280;58373;51.824;5.564;2023-11-18T00:00:51;102316.94;;;4.03;100.00
57990;BME280;58373;51.824;5.564;2023-11-18T00:03:16;102320.38;;;4.02;100.00
57990;BME280;58373;51.824;5.564;2023-11-18T00:05:42;102312.69;;;4.02;100.00
57990;BME280;58373;51.824;5.564;2023-11-18T00:08:07;102315.25;;;4.02;100.00
57990;BME280;58373;51.824;5.564;2023-11-18T00:10:32;102324.72;;;4.00;100.00
57990;BME280;58373;51.824;5.564;2023-11-18T00:12:57;102317.84;;;4.00;100.00
57990;BME280;58373;51.824;5.564;2023-11-18T00:15:23;102319.56;;;4.00;100.00
57990;BME280;58373;51.824;5.564;2023-11-18T00:17:48;102315.28;;;4.00;100.00
57990;BME280;58373;51.824;5.564;2023-11-18T00:20:13;102318.69;;;4.01;100.00
57990;BME280;58373;51.824;5.564;2023-11-18T00:22:39;102311.03;;;3.99;100.00
57990;BME280;58373;51.824;5.564;2023-11-18T00:25:04;102318.75;;;3.99;100.00
57990;BME280;58373;51.824;5.564;2023-11-18T00:27:30;102311.09;;;3.98;100.00
57990;BME280;58373;51.824;5.564;2023-11-18T00:29:55;102303.44;;;3.96;100.00
57990;BME280;58373;51.824;5.564;2023-11-18T00:32:21;102297.47;;;3.96;100.00
57990;BME280;58373;51.824;5.564;2023-11-18T00:34:46;102298.38;;;3.93;100.00
57990;BME280;58373;51.824;5.564;2023-11-18T00:37:11;102297.56;;;3.93;100.00
57990;BME280;58373;51.824;5.564;2023-11-18T00:39:37;102301.09;;;3.89;100.00
57990;BME280;58373;51.824;5.564;2023-11-18T00:42:02;102303.72;;;3.87;100.00
57990;BME280;58373;51.824;5.564;2023-11-18T00:44:27;102293.56;;;3.84;100.00
57990;BME280;58373;51.824;5.564;2023-11-18T00:46:52;102291.00;;;3.83;100.00
57990;BME280;58373;51.824;5.564;2023-11-18T00:49:18;102299.59;;;3.82;100.00
57990;BME280;58373;51.824;5.564;2023-11-18T00:51:43;102287.66;;;3.81;100.00
57990;BME280;58373;51.824;5.564;2023-11-18T00:54:08;102297.09;;;3.80;100.00
57990;BME280;58373;51.824;5.564;2023-11-18T00:56:34;102304.84;;;3.79;100.00
57990;BME280;58373;51.824;5.564;2023-11-18T00:59:00;102313.50;;;3.75;100.00
57990;BME280;58373;51.824;5.564;2023-11-18T01:01:28;102315.25;;;3.72;100.00
57990;BME280;58373;51.824;5.564;2023-11-18T01:03:53;102320.50;;;3.69;100.00
57990;BME280;58373;51.824;5.564;2023-11-18T01:06:18;102332.53;;;3.67;100.00
57990;BME280;58373;51.824;5.564;2023-11-18T01:08:44;102324.84;;;3.67;100.00
57990;BME280;58373;51.824;5.564;2023-11-18T01:11:09;102331.72;;;3.65;100.00
57990;BME280;58373;51.824;5.564;2023-11-18T01:13:35;102331.78;;;3.64;100.00
57990;BME280;58373;51.824;5.564;2023-11-18T01:16:00;102336.06;;;3.63;100.00
57990;BME280;58373;51.824;5.564;2023-11-18T01:18:25;102334.38;;;3.62;100.00
57990;BME280;58373;51.824;5.564;2023-11-18T01:20:50;102336.13;;;3.60;100.00
57990;BME280;58373;51.824;5.564;2023-11-18T01:23:16;102331.09;;;3.57;100.00
57990;BME280;58373;51.824;5.564;2023-11-18T01:25:41;102337.91;;;3.58;100.00
57990;BME280;58373;51.824;5.564;2023-11-18T01:28:06;102328.47;;;3.59;100.00
57990;BME280;58373;51.824;5.564;2023-11-18T01:30:31;102325.88;;;3.60;100.00
57990;BME280;58373;51.824;5.564;2023-11-18T01:32:57;102336.13;;;3.60;100.00
57990;BME280;58373;51.824;5.564;2023-11-18T01:35:25;102325.88;;;3.60;100.00
57990;BME280;58373;51.824;5.564;2023-11-18T01:37:51;102321.63;;;3.59;100.00
57990;BME280;58373;51.824;5.564;2023-11-18T01:40:16;102322.53;;;3.58;100.00
57990;BME280;58373;51.824;5.564;2023-11-18T01:42:45;102324.28;;;3.56;100.00
57990;BME280;58373;51.824;5.564;2023-11-18T01:45:11;102314.03;;;3.56;100.00
57990;BME280;58373;51.824;5.564;2023-11-18T01:47:37;102321.03;;;3.51;100.00
57990;BME280;58373;51.824;5.564;2023-11-18T01:50:03;102321.09;;;3.48;100.00
57990;BME280;58373;51.824;5.564;2023-11-18T01:52:31;102322.75;;;3.49;100.00
57990;BME280;58373;51.824;5.564;2023-11-18T01:54:56;102312.56;;;3.47;100.00
57990;BME280;58373;51.824;5.564;2023-11-18T01:57:22;102315.19;;;3.46;100.00
57990;BME280;58373;51.824;5.564;2023-11-18T01:59:47;102317.78;;;3.44;100.00
57990;BME280;58373;51.824;5.564;2023-11-18T02:02:12;102319.47;;;3.44;100.00
57990;BME280;58373;51.824;5.564;2023-11-18T02:04:38;102319.47;;;3.44;100.00
57990;BME280;58373;51.824;5.564;2023-11-18T02:07:03;102317.03;;;3.41;100.00
57990;BME280;58373;51.824;5.564;2023-11-18T02:09:34;102306.81;;;3.39;100.00
57990;BME280;58373;51.824;5.564;2023-11-18T02:14:45;102309.41;;;3.38;100.00
57990;BME280;58373;51.824;5.564;2023-11-18T02:17:10;102312.78;;;3.40;100.00
57990;BME280;58373;51.824;5.564;2023-11-18T02:19:38;102317.03;;;3.41;100.00
57990;BME280;58373;51.824;5.564;2023-11-18T02:22:04;102314.47;;;3.41;100.00
57990;BME280;58373;51.824;5.564;2023-11-18T02:24:32;102314.47;;;3.41;100.00
57990;BME280;58373;51.824;5.564;2023-11-18T02:27:02;102314.53;;;3.38;100.00
57990;BME280;58373;51.824;5.564;2023-11-18T02:29:28;102314.47;;;3.41;100.00
57990;BME280;58373;51.824;5.564;2023-11-18T02:31:57;102326.38;;;3.42;100.00
57990;BME280;58373;51.824;5.564;2023-11-18T02:34:27;102327.22;;;3.42;100.00
57990;BME280;58373;51.824;5.564;2023-11-18T02:36:53;102326.34;;;3.43;100.00
57990;BME280;58373;51.824;5.564;2023-11-18T02:39:27;102330.63;;;3.44;100.00
57990;BME280;58373;51.824;5.564;2023-11-18T02:41:54;102331.44;;;3.45;100.00
57990;BME280;58373;51.824;5.564;2023-11-18T02:44:21;102322.88;;;3.46;100.00
57990;BME280;58373;51.824;5.564;2023-11-18T02:46:48;102323.69;;;3.46;100.00
57990;BME280;58373;51.824;5.564;2023-11-18T02:49:13;102336.59;;;3.45;100.00
57990;BME280;58373;51.824;5.564;2023-11-18T02:51:38;102322.88;;;3.46;100.00
57990;BME280;58373;51.824;5.564;2023-11-18T02:54:08;102315.13;;;3.47;100.00
57990;BME280;58373;51.824;5.564;2023-11-18T02:56:36;102305.75;;;3.46;100.00
57990;BME280;58373;51.824;5.564;2023-11-18T02:59:01;102304.03;;;3.47;100.00
57990;BME280;58373;51.824;5.564;2023-11-18T03:01:26;102289.53;;;3.46;100.00
57990;BME280;58373;51.824;5.564;2023-11-18T03:03:52;102276.78;;;3.43;100.00
57990;BME280;58373;51.824;5.564;2023-11-18T03:06:18;102290.47;;;3.42;100.00
57990;BME280;58373;51.824;5.564;2023-11-18T03:08:43;102286.19;;;3.42;100.00
57990;BME280;58373;51.824;5.564;2023-11-18T03:11:09;102282.84;;;3.40;100.00
57990;BME280;58373;51.824;5.564;2023-11-18T03:13:34;102273.41;;;3.41;100.00
57990;BME280;58373;51.824;5.564;2023-11-18T03:15:59;102287.91;;;3.42;100.00
57990;BME280;58373;51.824;5.564;2023-11-18T03:18:25;102288.03;;;3.39;100.00
57990;BME280;58373;51.824;5.564;2023-11-18T03:20:50;102290.59;;;3.39;100.00
57990;BME280;58373;51.824;5.564;2023-11-18T03:23:16;102284.56;;;3.40;100.00
57990;BME280;58373;51.824;5.564;2023-11-18T03:25:41;102285.34;;;3.42;100.00
57990;BME280;58373;51.824;5.564;2023-11-18T03:28:06;102277.75;;;3.39;100.00
57990;BME280;58373;51.824;5.564;2023-11-18T03:30:32;102278.44;;;3.44;100.00
57990;BME280;58373;51.824;5.564;2023-11-18T03:32:57;102277.59;;;3.45;100.00
57990;BME280;58373;51.824;5.564;2023-11-18T03:35:22;102281.81;;;3.46;100.00
57990;BME280;58373;51.824;5.564;2023-11-18T03:37:49;102285.19;;;3.48;100.00
57990;BME280;58373;51.824;5.564;2023-11-18T03:40:14;102296.28;;;3.49;100.00
57990;BME280;58373;51.824;5.564;2023-11-18T03:42:40;102286.00;;;3.50;100.00
57990;BME280;58373;51.824;5.564;2023-11-18T03:45:06;102276.56;;;3.51;100.00
57990;BME280;58373;51.824;5.564;2023-11-18T03:47:31;102279.13;;;3.51;100.00
57990;BME280;58373;51.824;5.564;2023-11-18T03:49:56;102268.88;;;3.51;100.00
57990;BME280;58373;51.824;5.564;2023-11-18T03:52:22;102257.78;;;3.50;100.00
57990;BME280;58373;51.824;5.564;2023-11-18T03:54:47;102247.41;;;3.53;100.00
57990;BME280;58373;51.824;5.564;2023-11-18T03:57:12;102237.16;;;3.53;100.00
57990;BME280;58373;51.824;5.564;2023-11-18T03:59:40;102228.69;;;3.51;100.00
57990;BME280;58373;51.824;5.564;2023-11-18T04:02:06;102227.84;;;3.49;100.00
57990;BME280;58373;51.824;5.564;2023-11-18T04:04:31;102229.56;;;3.50;100.00
57990;BME280;58373;51.824;5.564;2023-11-18T04:06:56;102218.41;;;3.51;100.00
57990;BME280;58373;51.824;5.564;2023-11-18T04:09:22;102216.69;;;3.52;100.00
57990;BME280;58373;51.824;5.564;2023-11-18T04:11:47;102211.59;;;3.50;100.00
57990;BME280;58373;51.824;5.564;2023-11-18T04:14:12;102200.47;;;3.51;100.00
57990;BME280;58373;51.824;5.564;2023-11-18T04:16:37;102197.00;;;3.52;100.00
57990;BME280;58373;51.824;5.564;2023-11-18T04:19:03;102197.00;;;3.52;100.00
57990;BME280;58373;51.824;5.564;2023-11-18T04:21:28;102197.00;;;3.52;100.00
57990;BME280;58373;51.824;5.564;2023-11-18T04:23:53;102210.59;;;3.54;100.00
57990;BME280;58373;51.824;5.564;2023-11-18T04:26:19;102201.16;;;3.56;100.00
57990;BME280;58373;51.824;5.564;2023-11-18T04:28:45;102199.38;;;3.58;100.00
57990;BME280;58373;51.824;5.564;2023-11-18T04:31:10;102194.25;;;3.58;100.00
57990;BME280;58373;51.824;5.564;2023-11-18T04:33:36;102190.75;;;3.61;100.00
57990;BME280;58373;51.824;5.564;2023-11-18T04:36:01;102183.91;;;3.61;100.00
57990;BME280;58373;51.824;5.564;2023-11-18T04:38:26;102176.16;;;3.63;100.00
57990;BME280;58373;51.824;5.564;2023-11-18T04:40:52;102168.41;;;3.64;100.00
57990;BME280;58373;51.824;5.564;2023-11-18T04:43:17;102170.91;;;3.66;100.00
57990;BME280;58373;51.824;5.564;2023-11-18T04:45:43;102169.19;;;3.66;100.00
57990;BME280;58373;51.824;5.564;2023-11-18T04:48:08;102152.94;;;3.67;100.00
57990;BME280;58373;51.824;5.564;2023-11-18T04:50:33;102149.47;;;3.68;100.00
57990;BME280;58373;51.824;5.564;2023-11-18T04:52:59;102141.72;;;3.70;100.00
57990;BME280;58373;51.824;5.564;2023-11-18T04:55:24;102159.63;;;3.71;100.00
57990;BME280;58373;51.824;5.564;2023-11-18T04:57:51;102151.16;;;3.69;100.00
57990;BME280;58373;51.824;5.564;2023-11-18T05:00:16;102148.56;;;3.69;100.00
57990;BME280;58373;51.824;5.564;2023-11-18T05:02:42;102154.59;;;3.68;100.00
57990;BME280;58373;51.824;5.564;2023-11-18T05:05:09;102166.53;;;3.69;100.00
57990;BME280;58373;51.824;5.564;2023-11-18T05:07:34;102155.38;;;3.70;100.00
57990;BME280;58373;51.824;5.564;2023-11-18T05:10:00;102162.19;;;3.71;100.00
57990;BME280;58373;51.824;5.564;2023-11-18T05:12:26;102156.16;;;3.72;100.00
57990;BME280;58373;51.824;5.564;2023-11-18T05:14:51;102151.91;;;3.73;100.00
57990;BME280;58373;51.824;5.564;2023-11-18T05:17:16;102152.72;;;3.73;100.00
57990;BME280;58373;51.824;5.564;2023-11-18T05:19:42;102140.78;;;3.72;100.00
57990;BME280;58373;51.824;5.564;2023-11-18T05:22:08;102146.72;;;3.75;100.00
57990;BME280;58373;51.824;5.564;2023-11-18T05:24:33;102149.34;;;3.73;100.00
57990;BME280;58373;51.824;5.564;2023-11-18T05:26:58;102149.34;;;3.71;100.00
57990;BME280;58373;51.824;5.564;2023-11-18T05:29:26;102147.59;;;3.73;100.00
57990;BME280;58373;51.824;5.564;2023-11-18T05:31:53;102137.34;;;3.73;100.00
57990;BME280;58373;51.824;5.564;2023-11-18T05:34:19;102126.19;;;3.75;100.00
57990;BME280;58373;51.824;5.564;2023-11-18T05:36:45;102124.50;;;3.73;100.00
57990;BME280;58373;51.824;5.564;2023-11-18T05:39:11;102124.50;;;3.73;100.00
57990;BME280;58373;51.824;5.564;2023-11-18T05:41:36;102128.75;;;3.75;100.00
57990;BME280;58373;51.824;5.564;2023-11-18T05:44:04;102131.38;;;3.73;100.00
57990;BME280;58373;51.824;5.564;2023-11-18T05:46:31;102127.91;;;3.74;100.00
57990;BME280;58373;51.824;5.564;2023-11-18T05:49:01;102133.03;;;3.74;100.00
57990;BME280;58373;51.824;5.564;2023-11-18T05:51:26;102120.25;;;3.72;100.00
57990;BME280;58373;51.824;5.564;2023-11-18T05:53:53;102116.81;;;3.73;100.00
57990;BME280;58373;51.824;5.564;2023-11-18T05:56:20;102111.69;;;3.73;100.00
57990;BME280;58373;51.824;5.564;2023-11-18T05:58:47;102109.06;;;3.75;100.00
57990;BME280;58373;51.824;5.564;2023-11-18T06:01:12;102102.19;;;3.76;100.00
57990;BME280;58373;51.824;5.564;2023-11-18T06:03:38;102108.22;;;3.75;100.00
57990;BME280;58373;51.824;5.564;2023-11-18T06:06:07;102108.22;;;3.75;100.00
57990;BME280;58373;51.824;5.564;2023-11-18T06:08:35;102104.75;;;3.76;100.00
57990;BME280;58373;51.824;5.564;2023-11-18T06:11:00;102100.53;;;3.75;100.00
57990;BME280;58373;51.824;5.564;2023-11-18T06:13:30;102099.63;;;3.76;100.00
57990;BME280;58373;51.824;5.564;2023-11-18T06:15:55;102087.69;;;3.75;100.00
57990;BME280;58373;51.824;5.564;2023-11-18T06:18:20;102091.09;;;3.75;100.00
57990;BME280;58373;51.824;5.564;2023-11-18T06:20:46;102095.34;;;3.76;100.00
57990;BME280;58373;51.824;5.564;2023-11-18T06:23:11;102096.16;;;3.77;100.00
57990;BME280;58373;51.824;5.564;2023-11-18T06:25:36;102106.44;;;3.77;100.00
57990;BME280;58373;51.824;5.564;2023-11-18T06:28:01;102108.09;;;3.78;100.00
57990;BME280;58373;51.824;5.564;2023-11-18T06:30:27;102106.34;;;3.80;100.00
57990;BME280;58373;51.824;5.564;2023-11-18T06:32:52;102090.06;;;3.81;100.00
57990;BME280;58373;51.824;5.564;2023-11-18T06:35:18;102078.06;;;3.81;100.00
57990;BME280;58373;51.824;5.564;2023-11-18T06:37:44;102083.13;;;3.83;100.00
57990;BME280;58373;51.824;5.564;2023-11-18T06:40:10;102081.47;;;3.82;100.00
57990;BME280;58373;51.824;5.564;2023-11-18T06:42:44;102090.00;;;3.82;100.00
57990;BME280;58373;51.824;5.564;2023-11-18T06:45:12;102092.50;;;3.84;100.00
57990;BME280;58373;51.824;5.564;2023-11-18T06:47:38;102084.78;;;3.85;100.00
57990;BME280;58373;51.824;5.564;2023-11-18T06:50:03;102080.47;;;3.86;100.00
57990;BME280;58373;51.824;5.564;2023-11-18T06:52:29;102086.44;;;3.86;100.00
57990;BME280;58373;51.824;5.564;2023-11-18T06:54:54;102080.47;;;3.86;100.00
57990;BME280;58373;51.824;5.564;2023-11-18T06:57:20;102076.28;;;3.83;100.00
57990;BME280;58373;51.824;5.564;2023-11-18T06:59:45;102094.91;;;3.88;100.00
57990;BME280;58373;51.824;5.564;2023-11-18T07:02:10;102086.34;;;3.89;100.00
57990;BME280;58373;51.824;5.564;2023-11-18T07:04:35;102094.00;;;3.91;100.00
57990;BME280;58373;51.824;5.564;2023-11-18T07:07:00;102082.03;;;3.90;100.00
57990;BME280;58373;51.824;5.564;2023-11-18T07:09:26;102089.78;;;3.88;100.00
57990;BME280;58373;51.824;5.564;2023-11-18T07:11:52;102080.28;;;3.92;100.00
57990;BME280;58373;51.824;5.564;2023-11-18T07:14:17;102080.28;;;3.92;100.00
57990;BME280;58373;51.824;5.564;2023-11-18T07:16:42;102073.34;;;3.94;100.00
57990;BME280;58373;51.824;5.564;2023-11-18T07:19:09;102069.88;;;3.95;100.00
57990;BME280;58373;51.824;5.564;2023-11-18T07:21:44;102048.66;;;3.90;100.00
57990;BME280;58373;51.824;5.564;2023-11-18T07:24:09;102059.63;;;3.95;100.00
57990;BME280;58373;51.824;5.564;2023-11-18T07:26:35;102064.66;;;3.98;100.00
57990;BME280;58373;51.824;5.564;2023-11-18T07:29:00;102066.34;;;3.99;100.00
57990;BME280;58373;51.824;5.564;2023-11-18T07:31:26;102062.88;;;4.00;100.00
57990;BME280;58373;51.824;5.564;2023-11-18T07:33:51;102072.22;;;4.03;100.00
57990;BME280;58373;51.824;5.564;2023-11-18T07:36:17;102069.59;;;4.04;100.00
57990;BME280;58373;51.824;5.564;2023-11-18T07:38:44;102083.19;;;4.06;100.00
57990;BME280;58373;51.824;5.564;2023-11-18T07:41:10;102084.00;;;4.08;100.00
57990;BME280;58373;51.824;5.564;2023-11-18T07:43:37;102077.06;;;4.10;100.00
57990;BME280;58373;51.824;5.564;2023-11-18T07:46:02;102092.41;;;4.12;100.00
57990;BME280;58373;51.824;5.564;2023-11-18T07:48:27;102098.38;;;4.12;100.00
57990;BME280;58373;51.824;5.564;2023-11-18T07:50:53;102094.94;;;4.13;100.00
57990;BME280;58373;51.824;5.564;2023-11-18T07:53:18;102098.28;;;4.15;100.00
57990;BME280;58373;51.824;5.564;2023-11-18T07:55:43;102094.84;;;4.16;100.00
57990;BME280;58373;51.824;5.564;2023-11-18T07:58:09;102096.50;;;4.17;100.00
57990;BME280;58373;51.824;5.564;2023-11-18T08:00:41;102096.41;;;4.20;100.00
57990;BME280;58373;51.824;5.564;2023-11-18T08:03:07;102086.13;;;4.20;100.00
57990;BME280;58373;51.824;5.564;2023-11-18T08:05:36;102086.00;;;4.23;100.00
57990;BME280;58373;51.824;5.564;2023-11-18T08:08:02;102098.84;;;4.23;100.00
57990;BME280;58373;51.824;5.564;2023-11-18T08:10:28;102086.81;;;4.25;100.00
57990;BME280;58373;51.824;5.564;2023-11-18T08:12:57;102080.78;;;4.26;100.00
57990;BME280;58373;51.824;5.564;2023-11-18T08:15:23;102085.94;;;4.26;100.00
57990;BME280;58373;51.824;5.564;2023-11-18T08:17:51;102084.13;;;4.29;100.00
57990;BME280;58373;51.824;5.564;2023-11-18T08:20:16;102075.53;;;4.30;100.00
57990;BME280;58373;51.824;5.564;2023-11-18T08:22:42;102082.38;;;4.31;100.00
57990;BME280;58373;51.824;5.564;2023-11-18T08:25:11;102085.72;;;4.33;100.00
57990;BME280;58373;51.824;5.564;2023-11-18T08:27:37;102079.69;;;4.34;100.00
57990;BME280;58373;51.824;5.564;2023-11-18T08:30:03;102074.47;;;4.35;100.00
57990;BME280;58373;51.824;5.564;2023-11-18T08:32:35;102061.59;;;4.37;100.00
57990;BME280;58373;51.824;5.564;2023-11-18T08:35:01;102047.13;;;4.34;100.00
57990;BME280;58373;51.824;5.564;2023-11-18T08:37:26;102046.06;;;4.40;100.00
57990;BME280;58373;51.824;5.564;2023-11-18T08:39:53;102033.16;;;4.41;100.00
57990;BME280;58373;51.824;5.564;2023-11-18T08:42:18;102024.69;;;4.39;100.00
57990;BME280;58373;51.824;5.564;2023-11-18T08:44:43;102014.31;;;4.42;100.00
57990;BME280;58373;51.824;5.564;2023-11-18T08:47:10;102005.63;;;4.45;100.00
57990;BME280;58373;51.824;5.564;2023-11-18T08:49:37;101999.59;;;4.46;100.00
57990;BME280;58373;51.824;5.564;2023-11-18T08:52:05;101998.66;;;4.48;100.00
57990;BME280;58373;51.824;5.564;2023-11-18T08:54:34;102004.63;;;4.49;100.00
57990;BME280;58373;51.824;5.564;2023-11-18T08:57:03;101996.03;;;4.50;100.00
57990;BME280;58373;51.824;5.564;2023-11-18T08:59:29;102004.50;;;4.52;100.00
57990;BME280;58373;51.824;5.564;2023-11-18T09:01:55;102003.56;;;4.55;100.00
57990;BME280;58373;51.824;5.564;2023-11-18T09:04:23;102006.91;;;4.57;100.00
57990;BME280;58373;51.824;5.564;2023-11-18T09:06:49;101994.00;;;4.58;100.00
57990;BME280;58373;51.824;5.564;2023-11-18T09:09:16;101995.69;;;4.59;100.00
57990;BME280;58373;51.824;5.564;2023-11-18T09:11:41;101995.56;;;4.62;100.00
57990;BME280;58373;51.824;5.564;2023-11-18T09:14:07;101985.28;;;4.62;100.00
57990;BME280;58373;51.824;5.564;2023-11-18T09:16:33;101987.75;;;4.65;100.00
57990;BME280;58373;51.824;5.564;2023-11-18T09:19:04;101978.25;;;4.67;100.00
57990;BME280;58373;51.824;5.564;2023-11-18T09:21:31;101973.00;;;4.70;100.00
57990;BME280;58373;51.824;5.564;2023-11-18T09:24:00;101961.75;;;4.73;100.00
57990;BME280;58373;51.824;5.564;2023-11-18T09:26:27;101964.25;;;4.74;100.00
57990;BME280;58373;51.824;5.564;2023-11-18T09:28:55;101952.19;;;4.76;100.00
57990;BME280;58373;51.824;5.564;2023-11-18T09:31:20;101950.41;;;4.78;100.00
57990;BME280;58373;51.824;5.564;2023-11-18T09:33:46;101941.78;;;4.79;100.00
57990;BME280;58373;51.824;5.564;2023-11-18T09:36:17;101938.31;;;4.80;100.00
57990;BME280;58373;51.824;5.564;2023-11-18T09:38:43;101933.06;;;4.84;100.00
57990;BME280;58373;51.824;5.564;2023-11-18T09:41:11;101938.19;;;4.84;100.00
57990;BME280;58373;51.824;5.564;2023-11-18T09:43:37;101943.22;;;4.87;100.00
57990;BME280;58373;51.824;5.564;2023-11-18T09:46:14;101930.31;;;4.88;100.00
57990;BME280;58373;51.824;5.564;2023-11-18T09:51:08;101913.91;;;4.91;100.00
57990;BME280;58373;51.824;5.564;2023-11-18T09:53:36;101915.59;;;4.92;100.00
57990;BME280;58373;51.824;5.564;2023-11-18T09:56:12;101903.53;;;4.94;100.00
57990;BME280;58373;51.824;5.564;2023-11-18T09:58:53;101895.75;;;4.95;100.00
57990;BME280;58373;51.824;5.564;2023-11-18T10:01:21;101894.75;;;4.98;100.00
57990;BME280;58373;51.824;5.564;2023-11-18T10:03:48;101896.31;;;5.02;100.00
57990;BME280;58373;51.824;5.564;2023-11-18T10:06:13;101886.88;;;5.02;100.00
57990;BME280;58373;51.824;5.564;2023-11-18T10:08:40;101889.38;;;5.04;100.00
57990;BME280;58373;51.824;5.564;2023-11-18T10:11:05;101903.03;;;5.06;100.00
57990;BME280;58373;51.824;5.564;2023-11-18T10:13:34;101890.03;;;5.09;100.00
57990;BME280;58373;51.824;5.564;2023-11-18T10:16:00;101895.94;;;5.11;100.00
57990;BME280;58373;51.824;5.564;2023-11-18T10:18:25;101879.53;;;5.14;100.00
57990;BME280;58373;51.824;5.564;2023-11-18T10:20:53;101881.94;;;5.18;100.00
57990;BME280;58373;51.824;5.564;2023-11-18T10:23:19;101871.50;;;5.21;100.00
57990;BME280;58373;51.824;5.564;2023-11-18T10:28:23;101876.38;;;5.27;100.00
57990;BME280;58373;51.824;5.564;2023-11-18T10:30:49;101881.41;;;5.30;100.00
57990;BME280;58373;51.824;5.564;2023-11-18T10:33:15;101882.97;;;5.35;100.00
57990;BME280;58373;51.824;5.564;2023-11-18T10:35:51;101866.53;;;5.37;100.00
57990;BME280;58373;51.824;5.564;2023-11-18T10:38:16;101887.00;;;5.40;100.00
57990;BME280;58373;51.824;5.564;2023-11-18T10:40:42;101894.50;;;5.45;100.00
57990;BME280;58373;51.824;5.564;2023-11-18T10:43:08;101878.94;;;5.48;100.00
57990;BME280;58373;51.824;5.564;2023-11-18T10:45:34;101856.53;;;5.50;100.00
57990;BME280;58373;51.824;5.564;2023-11-18T10:48:04;101852.94;;;5.54;100.00
57990;BME280;58373;51.824;5.564;2023-11-18T10:50:29;101854.56;;;5.56;100.00
57990;BME280;58373;51.824;5.564;2023-11-18T10:52:57;101847.53;;;5.60;100.00
57990;BME280;58373;51.824;5.564;2023-11-18T10:55:22;101854.22;;;5.64;100.00
57990;BME280;58373;51.824;5.564;2023-11-18T10:57:47;101856.72;;;5.66;100.00
57990;BME280;58373;51.824;5.564;2023-11-18T11:00:13;101854.06;;;5.67;100.00
57990;BME280;58373;51.824;5.564;2023-11-18T11:02:39;101847.13;;;5.69;100.00
57990;BME280;58373;51.824;5.564;2023-11-18T11:05:07;101839.31;;;5.71;100.00
57990;BME280;58373;51.824;5.564;2023-11-18T11:07:32;101846.97;;;5.72;100.00
57990;BME280;58373;51.824;5.564;2023-11-18T11:09:58;101843.50;;;5.73;100.00
57990;BME280;58373;51.824;5.564;2023-11-18T11:12:25;101814.28;;;5.74;100.00
57990;BME280;58373;51.824;5.564;2023-11-18T11:15:04;101799.69;;;5.75;100.00
57990;BME280;58373;51.824;5.564;2023-11-18T11:17:33;101800.53;;;5.75;100.00
57990;BME280;58373;51.824;5.564;2023-11-18T11:20:05;101811.66;;;5.76;100.00
57990;BME280;58373;51.824;5.564;2023-11-18T11:25:22;101815.81;;;5.78;100.00
57990;BME280;58373;51.824;5.564;2023-11-18T11:27:59;101798.56;;;5.80;100.00
57990;BME280;58373;51.824;5.564;2023-11-18T11:30:33;101791.69;;;5.81;100.00
57990;BME280;58373;51.824;5.564;2023-11-18T11:35:50;101738.44;;;5.81;100.00
57990;BME280;58373;51.824;5.564;2023-11-18T11:38:20;101711.03;;;5.80;100.00
57990;BME280;58373;51.824;5.564;2023-11-18T11:40:47;101722.19;;;5.81;100.00
57990;BME280;58373;51.824;5.564;2023-11-18T11:43:14;101728.16;;;5.81;100.00
57990;BME280;58373;51.824;5.564;2023-11-18T11:45:46;101712.72;;;5.81;100.00
57990;BME280;58373;51.824;5.564;2023-11-18T11:48:12;101694.53;;;5.84;100.00
57990;BME280;58373;51.824;5.564;2023-11-18T11:50:48;101686.81;;;5.84;100.00
57990;BME280;58373;51.824;5.564;2023-11-18T11:53:20;101665.25;;;5.87;100.00
57990;BME280;58373;51.824;5.564;2023-11-18T11:55:48;101657.44;;;5.89;100.00
57990;BME280;58373;51.824;5.564;2023-11-18T11:58:26;101650.47;;;5.91;100.00
57990;BME280;58373;51.824;5.564;2023-11-18T12:00:52;101640.06;;;5.94;100.00
57990;BME280;58373;51.824;5.564;2023-11-18T12:03:20;101643.38;;;5.96;100.00
57990;BME280;58373;51.824;5.564;2023-11-18T12:05:47;101645.91;;;5.97;100.00
57990;BME280;58373;51.824;5.564;2023-11-18T12:08:12;101655.22;;;6.00;100.00
57990;BME280;58373;51.824;5.564;2023-11-18T12:10:38;101659.31;;;6.04;100.00
57990;BME280;58373;51.824;5.564;2023-11-18T12:13:06;101653.25;;;6.05;100.00
57990;BME280;58373;51.824;5.564;2023-11-18T12:15:48;101635.13;;;6.06;100.00
57990;BME280;58373;51.824;5.564;2023-11-18T12:18:19;101616.19;;;6.07;100.00
57990;BME280;58373;51.824;5.564;2023-11-18T12:20:46;101617.78;;;6.10;100.00
57990;BME280;58373;51.824;5.564;2023-11-18T12:23:12;101618.53;;;6.12;100.00
57990;BME280;58373;51.824;5.564;2023-11-18T12:25:44;101602.94;;;6.15;100.00
57990;BME280;58373;51.824;5.564;2023-11-18T12:28:19;101577.00;;;6.18;100.00
57990;BME280;58373;51.824;5.564;2023-11-18T12:30:51;101568.38;;;6.19;100.00
57990;BME280;58373;51.824;5.564;2023-11-18T12:33:17;101551.94;;;6.22;100.00
57990;BME280;58373;51.824;5.564;2023-11-18T12:41:00;101537.19;;;6.25;100.00
57990;BME280;58373;51.824;5.564;2023-11-18T12:48:50;101496.63;;;6.29;100.00
57990;BME280;58373;51.824;5.564;2023-11-18T12:51:18;101462.19;;;6.30;100.00
57990;BME280;58373;51.824;5.564;2023-11-18T12:53:49;101453.41;;;6.34;100.00
57990;BME280;58373;51.824;5.564;2023-11-18T12:56:18;101454.41;;;6.31;100.00
57990;BME280;58373;51.824;5.564;2023-11-18T12:58:45;101442.28;;;6.33;100.00
57990;BME280;58373;51.824;5.564;2023-11-18T13:01:10;101433.72;;;6.33;100.00
57990;BME280;58373;51.824;5.564;2023-11-18T13:03:39;101437.84;;;6.35;100.00
57990;BME280;58373;51.824;5.564;2023-11-18T13:06:06;101430.13;;;6.35;100.00
57990;BME280;58373;51.824;5.564;2023-11-18T13:08:31;101426.72;;;6.35;100.00
57990;BME280;58373;51.824;5.564;2023-11-18T13:10:56;101438.78;;;6.34;100.00